sensor_id;sensor_type;location;lat;lon;timestamp;P1;durP1;ratioP1;P2;durP2;ratioP2
11539;SDS011;5826;54.756;9.192;2022-09-20T00:00:34;1.65;;;0.40;;
11539;SDS011;5826;54.756;9.192;2022-09-20T00:03:00;1.13;;;0.50;;
11539;SDS011;5826;54.756;9.192;2022-09-20T00:05:26;1.45;;;0.50;;
11539;SDS011;5826;54.756;9.192;2022-09-20T00:07:51;0.63;;;0.40;;
11539;SDS011;5826;54.756;9.192;2022-09-20T00:10:17;0.93;;;0.40;;
11539;SDS011;5826;54.756;9.192;2022-09-20T00:12:42;0.73;;;0.40;;
11539;SDS011;5826;54.756;9.192;2022-09-20T00:15:08;0.70;;;0.50;;
11539;SDS011;5826;54.756;9.192;2022-09-20T00:17:34;0.82;;;0.57;;
11539;SDS011;5826;54.756;9.192;2022-09-20T00:19:59;0.95;;;0.85;;
11539;SDS011;5826;54.756;9.192;2022-09-20T00:22:25;1.15;;;0.80;;
11539;SDS011;5826;54.756;9.192;2022-09-20T00:24:51;1.92;;;1.00;;
11539;SDS011;5826;54.756;9.192;2022-09-20T00:27:16;1.65;;;0.70;;
11539;SDS011;5826;54.756;9.192;2022-09-20T00:29:42;2.00;;;0.90;;
11539;SDS011;5826;54.756;9.192;2022-09-20T00:32:07;0.85;;;0.70;;
11539;SDS011;5826;54.756;9.192;2022-09-20T00:34:33;0.90;;;0.80;;
11539;SDS011;5826;54.756;9.192;2022-09-20T00:37:17;1.27;;;0.65;;
11539;SDS011;5826;54.756;9.192;2022-09-20T00:39:43;1.15;;;0.80;;
11539;SDS011;5826;54.756;9.192;2022-09-20T00:42:11;1.00;;;0.52;;
11539;SDS011;5826;54.756;9.192;2022-09-20T00:50:31;0.43;;;0.40;;
11539;SDS011;5826;54.756;9.192;2022-09-20T00:53:13;0.70;;;0.60;;
11539;SDS011;5826;54.756;9.192;2022-09-20T00:55:49;0.80;;;0.60;;
11539;SDS011;5826;54.756;9.192;2022-09-20T00:58:19;1.08;;;0.50;;
11539;SDS011;5826;54.756;9.192;2022-09-20T01:00:47;0.98;;;0.70;;
11539;SDS011;5826;54.756;9.192;2022-09-20T01:03:15;1.17;;;0.52;;
11539;SDS011;5826;54.756;9.192;2022-09-20T01:05:44;0.70;;;0.45;;
11539;SDS011;5826;54.756;9.192;2022-09-20T01:08:09;0.50;;;0.30;;
11539;SDS011;5826;54.756;9.192;2022-09-20T01:10:36;1.25;;;0.60;;
11539;SDS011;5826;54.756;9.192;2022-09-20T01:13:02;1.80;;;0.82;;
11539;SDS011;5826;54.756;9.192;2022-09-20T01:15:29;1.00;;;0.70;;
11539;SDS011;5826;54.756;9.192;2022-09-20T01:17:57;1.02;;;0.90;;
11539;SDS011;5826;54.756;9.192;2022-09-20T01:20:25;1.95;;;1.20;;
11539;SDS011;5826;54.756;9.192;2022-09-20T01:23:01;1.52;;;1.20;;
11539;SDS011;5826;54.756;9.192;2022-09-20T01:25:55;1.65;;;1.30;;
11539;SDS011;5826;54.756;9.192;2022-09-20T01:28:34;1.73;;;1.27;;
11539;SDS011;5826;54.756;9.192;2022-09-20T01:31:07;2.63;;;1.38;;
11539;SDS011;5826;54.756;9.192;2022-09-20T01:34:02;2.33;;;1.48;;
11539;SDS011;5826;54.756;9.192;2022-09-20T01:36:52;1.90;;;1.20;;
11539;SDS011;5826;54.756;9.192;2022-09-20T01:42:14;1.23;;;1.00;;
11539;SDS011;5826;54.756;9.192;2022-09-20T01:47:34;1.52;;;1.02;;
11539;SDS011;5826;54.756;9.192;2022-09-20T01:50:14;1.20;;;1.10;;
11539;SDS011;5826;54.756;9.192;2022-09-20T01:53:19;2.70;;;1.23;;
11539;SDS011;5826;54.756;9.192;2022-09-20T01:58:55;1.25;;;0.90;;
11539;SDS011;5826;54.756;9.192;2022-09-20T02:07:15;0.70;;;0.60;;
11539;SDS011;5826;54.756;9.192;2022-09-20T02:18:35;1.35;;;0.90;;
11539;SDS011;5826;54.756;9.192;2022-09-20T02:21:42;1.92;;;0.85;;
11539;SDS011;5826;54.756;9.192;2022-09-20T02:24:29;1.15;;;1.00;;
11539;SDS011;5826;54.756;9.192;2022-09-20T02:27:16;0.57;;;0.57;;
11539;SDS011;5826;54.756;9.192;2022-09-20T02:29:48;1.17;;;0.85;;
11539;SDS011;5826;54.756;9.192;2022-09-20T02:35:24;1.63;;;0.73;;
11539;SDS011;5826;54.756;9.192;2022-09-20T02:51:30;0.90;;;0.68;;
11539;SDS011;5826;54.756;9.192;2022-09-20T02:57:05;0.70;;;0.50;;
11539;SDS011;5826;54.756;9.192;2022-09-20T03:00:03;2.10;;;0.70;;
11539;SDS011;5826;54.756;9.192;2022-09-20T03:05:21;1.25;;;0.60;;
11539;SDS011;5826;54.756;9.192;2022-09-20T03:19:12;0.73;;;0.60;;
11539;SDS011;5826;54.756;9.192;2022-09-20T03:33:40;0.73;;;0.50;;
11539;SDS011;5826;54.756;9.192;2022-09-20T04:17:48;0.90;;;0.70;;
11539;SDS011;5826;54.756;9.192;2022-09-20T04:20:49;1.17;;;0.70;;
11539;SDS011;5826;54.756;9.192;2022-09-20T04:25:45;6.72;;;5.03;;
11539;SDS011;5826;54.756;9.192;2022-09-20T04:28:19;5.20;;;3.70;;
11539;SDS011;5826;54.756;9.192;2022-09-20T04:30:50;3.25;;;2.70;;
11539;SDS011;5826;54.756;9.192;2022-09-20T04:33:22;3.20;;;1.95;;
11539;SDS011;5826;54.756;9.192;2022-09-20T04:36:10;1.40;;;1.17;;
11539;SDS011;5826;54.756;9.192;2022-09-20T04:39:02;1.20;;;1.00;;
11539;SDS011;5826;54.756;9.192;2022-09-20T04:55:44;1.60;;;0.88;;
11539;SDS011;5826;54.756;9.192;2022-09-20T04:58:25;1.43;;;0.80;;
11539;SDS011;5826;54.756;9.192;2022-09-20T05:12:27;0.70;;;0.70;;
11539;SDS011;5826;54.756;9.192;2022-09-20T05:15:21;1.95;;;0.90;;
11539;SDS011;5826;54.756;9.192;2022-09-20T05:28:21;1.40;;;1.10;;
11539;SDS011;5826;54.756;9.192;2022-09-20T05:31:00;1.52;;;1.00;;
11539;SDS011;5826;54.756;9.192;2022-09-20T05:33:39;1.43;;;0.90;;
11539;SDS011;5826;54.756;9.192;2022-09-20T05:36:17;1.70;;;1.00;;
11539;SDS011;5826;54.756;9.192;2022-09-20T05:38:51;1.10;;;0.90;;
11539;SDS011;5826;54.756;9.192;2022-09-20T05:49:30;1.70;;;1.00;;
11539;SDS011;5826;54.756;9.192;2022-09-20T06:00:20;2.50;;;1.03;;
11539;SDS011;5826;54.756;9.192;2022-09-20T06:05:40;1.43;;;0.80;;
11539;SDS011;5826;54.756;9.192;2022-09-20T06:11:23;1.77;;;0.80;;
11539;SDS011;5826;54.756;9.192;2022-09-20T06:22:50;1.37;;;0.90;;
11539;SDS011;5826;54.756;9.192;2022-09-20T06:25:22;1.90;;;0.77;;
11539;SDS011;5826;54.756;9.192;2022-09-20T06:28:04;0.73;;;0.60;;
11539;SDS011;5826;54.756;9.192;2022-09-20T06:30:35;1.67;;;1.00;;
11539;SDS011;5826;54.756;9.192;2022-09-20T06:35:50;0.70;;;0.70;;
11539;SDS011;5826;54.756;9.192;2022-09-20T06:41:13;2.57;;;1.00;;
11539;SDS011;5826;54.756;9.192;2022-09-20T06:43:52;2.90;;;1.07;;
11539;SDS011;5826;54.756;9.192;2022-09-20T06:46:23;3.33;;;1.00;;
11539;SDS011;5826;54.756;9.192;2022-09-20T06:48:49;2.33;;;1.10;;
11539;SDS011;5826;54.756;9.192;2022-09-20T06:51:15;4.13;;;1.17;;
11539;SDS011;5826;54.756;9.192;2022-09-20T06:53:40;1.77;;;1.25;;
11539;SDS011;5826;54.756;9.192;2022-09-20T06:56:07;3.10;;;0.97;;
11539;SDS011;5826;54.756;9.192;2022-09-20T06:58:37;3.03;;;1.07;;
11539;SDS011;5826;54.756;9.192;2022-09-20T07:01:02;2.95;;;1.00;;
11539;SDS011;5826;54.756;9.192;2022-09-20T07:03:28;2.83;;;1.20;;
11539;SDS011;5826;54.756;9.192;2022-09-20T07:05:55;2.50;;;0.98;;
11539;SDS011;5826;54.756;9.192;2022-09-20T07:08:22;2.27;;;1.17;;
11539;SDS011;5826;54.756;9.192;2022-09-20T07:10:47;2.45;;;0.90;;
11539;SDS011;5826;54.756;9.192;2022-09-20T07:13:13;3.80;;;1.02;;
11539;SDS011;5826;54.756;9.192;2022-09-20T07:15:38;2.40;;;0.73;;
11539;SDS011;5826;54.756;9.192;2022-09-20T07:18:04;2.40;;;0.90;;
11539;SDS011;5826;54.756;9.192;2022-09-20T07:20:30;3.50;;;1.17;;
11539;SDS011;5826;54.756;9.192;2022-09-20T07:22:55;3.38;;;1.20;;
11539;SDS011;5826;54.756;9.192;2022-09-20T07:25:21;2.17;;;0.82;;
11539;SDS011;5826;54.756;9.192;2022-09-20T07:27:47;1.50;;;0.83;;
11539;SDS011;5826;54.756;9.192;2022-09-20T07:30:14;1.50;;;0.85;;
11539;SDS011;5826;54.756;9.192;2022-09-20T07:32:41;1.73;;;0.88;;
11539;SDS011;5826;54.756;9.192;2022-09-20T07:35:08;1.10;;;0.80;;
11539;SDS011;5826;54.756;9.192;2022-09-20T07:37:34;2.08;;;0.88;;
11539;SDS011;5826;54.756;9.192;2022-09-20T07:40:00;1.70;;;0.90;;
11539;SDS011;5826;54.756;9.192;2022-09-20T07:42:26;2.63;;;0.88;;
11539;SDS011;5826;54.756;9.192;2022-09-20T07:44:53;2.03;;;0.75;;
11539;SDS011;5826;54.756;9.192;2022-09-20T07:47:19;1.17;;;0.63;;
11539;SDS011;5826;54.756;9.192;2022-09-20T07:49:47;1.33;;;0.52;;
11539;SDS011;5826;54.756;9.192;2022-09-20T07:52:12;1.27;;;0.60;;
11539;SDS011;5826;54.756;9.192;2022-09-20T07:54:38;1.20;;;0.70;;
11539;SDS011;5826;54.756;9.192;2022-09-20T07:57:04;2.00;;;1.23;;
11539;SDS011;5826;54.756;9.192;2022-09-20T07:59:30;1.88;;;1.45;;
11539;SDS011;5826;54.756;9.192;2022-09-20T08:01:55;2.20;;;1.23;;
11539;SDS011;5826;54.756;9.192;2022-09-20T08:04:22;2.00;;;1.20;;
11539;SDS011;5826;54.756;9.192;2022-09-20T08:06:48;1.65;;;1.10;;
11539;SDS011;5826;54.756;9.192;2022-09-20T08:09:13;1.55;;;1.25;;
11539;SDS011;5826;54.756;9.192;2022-09-20T08:11:39;1.48;;;0.98;;
11539;SDS011;5826;54.756;9.192;2022-09-20T08:14:06;1.08;;;0.90;;
11539;SDS011;5826;54.756;9.192;2022-09-20T08:16:41;1.20;;;0.90;;
11539;SDS011;5826;54.756;9.192;2022-09-20T08:19:08;1.40;;;0.90;;
11539;SDS011;5826;54.756;9.192;2022-09-20T08:21:38;1.70;;;0.90;;
11539;SDS011;5826;54.756;9.192;2022-09-20T08:24:05;1.77;;;1.05;;
11539;SDS011;5826;54.756;9.192;2022-09-20T08:26:30;1.80;;;0.90;;
11539;SDS011;5826;54.756;9.192;2022-09-20T08:28:56;1.65;;;0.90;;
11539;SDS011;5826;54.756;9.192;2022-09-20T08:31:24;1.65;;;0.82;;
11539;SDS011;5826;54.756;9.192;2022-09-20T08:33:52;1.52;;;0.80;;
11539;SDS011;5826;54.756;9.192;2022-09-20T08:36:19;1.17;;;0.80;;
11539;SDS011;5826;54.756;9.192;2022-09-20T08:38:46;1.45;;;0.77;;
11539;SDS011;5826;54.756;9.192;2022-09-20T08:41:18;0.93;;;0.70;;
11539;SDS011;5826;54.756;9.192;2022-09-20T08:43:52;2.42;;;0.80;;
11539;SDS011;5826;54.756;9.192;2022-09-20T08:46:24;0.85;;;0.60;;
11539;SDS011;5826;54.756;9.192;2022-09-20T08:48:53;2.13;;;0.77;;
11539;SDS011;5826;54.756;9.192;2022-09-20T08:51:21;1.45;;;0.80;;
11539;SDS011;5826;54.756;9.192;2022-09-20T08:53:51;2.40;;;0.75;;
11539;SDS011;5826;54.756;9.192;2022-09-20T08:56:19;1.85;;;0.73;;
11539;SDS011;5826;54.756;9.192;2022-09-20T08:58:45;1.77;;;0.80;;
11539;SDS011;5826;54.756;9.192;2022-09-20T09:01:17;1.65;;;0.75;;
11539;SDS011;5826;54.756;9.192;2022-09-20T09:03:50;2.05;;;1.05;;
11539;SDS011;5826;54.756;9.192;2022-09-20T09:06:18;1.98;;;0.77;;
11539;SDS011;5826;54.756;9.192;2022-09-20T09:08:45;1.83;;;0.95;;
11539;SDS011;5826;54.756;9.192;2022-09-20T09:11:13;1.77;;;1.10;;
11539;SDS011;5826;54.756;9.192;2022-09-20T09:13:53;1.85;;;1.15;;
11539;SDS011;5826;54.756;9.192;2022-09-20T09:16:20;3.40;;;1.08;;
11539;SDS011;5826;54.756;9.192;2022-09-20T09:18:48;3.47;;;1.13;;
11539;SDS011;5826;54.756;9.192;2022-09-20T09:21:16;3.53;;;1.00;;
11539;SDS011;5826;54.756;9.192;2022-09-20T09:23:51;2.15;;;0.95;;
11539;SDS011;5826;54.756;9.192;2022-09-20T09:26:27;1.73;;;0.73;;
11539;SDS011;5826;54.756;9.192;2022-09-20T09:29:06;1.13;;;0.70;;
11539;SDS011;5826;54.756;9.192;2022-09-20T09:31:43;1.90;;;0.70;;
11539;SDS011;5826;54.756;9.192;2022-09-20T09:34:29;2.00;;;0.80;;
11539;SDS011;5826;54.756;9.192;2022-09-20T09:36:57;2.85;;;0.93;;
11539;SDS011;5826;54.756;9.192;2022-09-20T09:39:25;2.50;;;0.90;;
11539;SDS011;5826;54.756;9.192;2022-09-20T09:41:52;2.40;;;0.90;;
11539;SDS011;5826;54.756;9.192;2022-09-20T09:46:55;3.10;;;0.93;;
11539;SDS011;5826;54.756;9.192;2022-09-20T09:49:22;3.38;;;1.00;;
11539;SDS011;5826;54.756;9.192;2022-09-20T09:54:37;1.40;;;0.70;;
11539;SDS011;5826;54.756;9.192;2022-09-20T10:05:31;2.90;;;0.90;;
11539;SDS011;5826;54.756;9.192;2022-09-20T10:08:32;2.78;;;0.90;;
11539;SDS011;5826;54.756;9.192;2022-09-20T10:11:20;2.25;;;0.70;;
11539;SDS011;5826;54.756;9.192;2022-09-20T10:17:13;1.17;;;0.80;;
11539;SDS011;5826;54.756;9.192;2022-09-20T10:25:40;3.05;;;0.93;;
11539;SDS011;5826;54.756;9.192;2022-09-20T10:28:31;2.80;;;0.80;;
11539;SDS011;5826;54.756;9.192;2022-09-20T10:31:29;2.05;;;0.75;;
11539;SDS011;5826;54.756;9.192;2022-09-20T10:34:19;1.88;;;0.80;;
11539;SDS011;5826;54.756;9.192;2022-09-20T10:36:56;4.35;;;0.90;;
11539;SDS011;5826;54.756;9.192;2022-09-20T10:39:33;3.50;;;0.75;;
11539;SDS011;5826;54.756;9.192;2022-09-20T10:47:59;2.25;;;0.77;;
11539;SDS011;5826;54.756;9.192;2022-09-20T10:53:15;1.13;;;0.77;;
11539;SDS011;5826;54.756;9.192;2022-09-20T10:56:18;1.60;;;0.68;;
11539;SDS011;5826;54.756;9.192;2022-09-20T11:05:11;2.45;;;0.93;;
11539;SDS011;5826;54.756;9.192;2022-09-20T11:10:24;1.40;;;0.60;;
11539;SDS011;5826;54.756;9.192;2022-09-20T11:13:06;1.38;;;0.50;;
11539;SDS011;5826;54.756;9.192;2022-09-20T11:16:03;1.30;;;0.60;;
11539;SDS011;5826;54.756;9.192;2022-09-20T11:18:32;1.70;;;0.80;;
11539;SDS011;5826;54.756;9.192;2022-09-20T11:21:09;1.88;;;0.80;;
11539;SDS011;5826;54.756;9.192;2022-09-20T11:26:26;2.15;;;0.70;;
11539;SDS011;5826;54.756;9.192;2022-09-20T11:28:56;1.90;;;0.70;;
11539;SDS011;5826;54.756;9.192;2022-09-20T11:31:40;1.65;;;0.52;;
11539;SDS011;5826;54.756;9.192;2022-09-20T11:34:15;2.85;;;0.73;;
11539;SDS011;5826;54.756;9.192;2022-09-20T11:36:58;2.30;;;0.70;;
11539;SDS011;5826;54.756;9.192;2022-09-20T11:39:28;1.42;;;0.50;;
11539;SDS011;5826;54.756;9.192;2022-09-20T11:41:58;1.13;;;0.60;;
11539;SDS011;5826;54.756;9.192;2022-09-20T11:44:25;2.33;;;0.90;;
11539;SDS011;5826;54.756;9.192;2022-09-20T11:46:56;1.42;;;0.52;;
11539;SDS011;5826;54.756;9.192;2022-09-20T11:49:28;1.33;;;0.70;;
11539;SDS011;5826;54.756;9.192;2022-09-20T11:58:06;1.80;;;0.80;;
11539;SDS011;5826;54.756;9.192;2022-09-20T12:00:40;0.82;;;0.52;;
11539;SDS011;5826;54.756;9.192;2022-09-20T12:03:51;1.35;;;0.50;;
11539;SDS011;5826;54.756;9.192;2022-09-20T12:06:01;2.20;;;0.75;;
11539;SDS011;5826;54.756;9.192;2022-09-20T12:10:58;3.10;;;0.80;;
11539;SDS011;5826;54.756;9.192;2022-09-20T12:13:28;2.10;;;0.77;;
11539;SDS011;5826;54.756;9.192;2022-09-20T12:21:17;1.15;;;0.60;;
11539;SDS011;5826;54.756;9.192;2022-09-20T12:23:45;1.90;;;0.60;;
11539;SDS011;5826;54.756;9.192;2022-09-20T12:29:09;2.38;;;0.65;;
11539;SDS011;5826;54.756;9.192;2022-09-20T12:31:59;1.85;;;0.60;;
11539;SDS011;5826;54.756;9.192;2022-09-20T12:34:35;1.67;;;0.60;;
11539;SDS011;5826;54.756;9.192;2022-09-20T12:39:30;1.25;;;0.60;;
11539;SDS011;5826;54.756;9.192;2022-09-20T12:52:23;2.28;;;0.70;;
11539;SDS011;5826;54.756;9.192;2022-09-20T12:58:18;1.10;;;0.52;;
11539;SDS011;5826;54.756;9.192;2022-09-20T13:09:15;1.92;;;0.60;;
11539;SDS011;5826;54.756;9.192;2022-09-20T13:14:00;0.98;;;0.47;;
11539;SDS011;5826;54.756;9.192;2022-09-20T13:16:31;0.88;;;0.50;;
11539;SDS011;5826;54.756;9.192;2022-09-20T13:24:22;1.33;;;0.50;;
11539;SDS011;5826;54.756;9.192;2022-09-20T13:26:49;1.27;;;0.60;;
11539;SDS011;5826;54.756;9.192;2022-09-20T13:29:21;1.48;;;0.63;;
11539;SDS011;5826;54.756;9.192;2022-09-20T13:31:51;1.30;;;0.47;;
11539;SDS011;5826;54.756;9.192;2022-09-20T13:34:18;1.50;;;0.50;;
11539;SDS011;5826;54.756;9.192;2022-09-20T13:36:47;3.17;;;1.10;;
11539;SDS011;5826;54.756;9.192;2022-09-20T13:39:22;1.58;;;0.80;;
11539;SDS011;5826;54.756;9.192;2022-09-20T13:41:50;1.00;;;0.60;;
11539;SDS011;5826;54.756;9.192;2022-09-20T13:44:16;1.88;;;0.60;;
11539;SDS011;5826;54.756;9.192;2022-09-20T13:46:43;2.10;;;0.57;;
11539;SDS011;5826;54.756;9.192;2022-09-20T13:51:45;0.93;;;0.50;;
11539;SDS011;5826;54.756;9.192;2022-09-20T13:54:19;1.00;;;0.60;;
11539;SDS011;5826;54.756;9.192;2022-09-20T13:56:48;1.52;;;0.80;;
11539;SDS011;5826;54.756;9.192;2022-09-20T13:59:14;1.05;;;0.70;;
11539;SDS011;5826;54.756;9.192;2022-09-20T14:01:43;0.70;;;0.60;;
11539;SDS011;5826;54.756;9.192;2022-09-20T14:04:15;1.30;;;0.70;;
11539;SDS011;5826;54.756;9.192;2022-09-20T14:06:45;1.17;;;0.55;;
11539;SDS011;5826;54.756;9.192;2022-09-20T14:09:24;0.57;;;0.47;;
11539;SDS011;5826;54.756;9.192;2022-09-20T14:11:52;1.27;;;0.60;;
11539;SDS011;5826;54.756;9.192;2022-09-20T14:14:18;1.15;;;0.60;;
11539;SDS011;5826;54.756;9.192;2022-09-20T14:16:45;0.98;;;0.60;;
11539;SDS011;5826;54.756;9.192;2022-09-20T14:19:13;0.68;;;0.40;;
11539;SDS011;5826;54.756;9.192;2022-09-20T14:21:41;1.30;;;0.50;;
11539;SDS011;5826;54.756;9.192;2022-09-20T14:26:42;1.40;;;0.47;;
11539;SDS011;5826;54.756;9.192;2022-09-20T14:29:38;0.75;;;0.60;;
11539;SDS011;5826;54.756;9.192;2022-09-20T14:34:51;0.88;;;0.50;;
11539;SDS011;5826;54.756;9.192;2022-09-20T14:37:32;0.95;;;0.47;;
11539;SDS011;5826;54.756;9.192;2022-09-20T14:40:04;0.65;;;0.50;;
11539;SDS011;5826;54.756;9.192;2022-09-20T14:42:44;0.50;;;0.50;;
11539;SDS011;5826;54.756;9.192;2022-09-20T14:47:57;0.93;;;0.70;;
11539;SDS011;5826;54.756;9.192;2022-09-20T14:53:35;2.05;;;0.80;;
11539;SDS011;5826;54.756;9.192;2022-09-20T14:58:30;1.15;;;0.95;;
11539;SDS011;5826;54.756;9.192;2022-09-20T15:01:03;1.17;;;0.82;;
11539;SDS011;5826;54.756;9.192;2022-09-20T15:03:42;0.95;;;0.90;;
11539;SDS011;5826;54.756;9.192;2022-09-20T15:06:11;1.52;;;0.88;;
11539;SDS011;5826;54.756;9.192;2022-09-20T15:08:37;1.48;;;0.98;;
11539;SDS011;5826;54.756;9.192;2022-09-20T15:11:03;0.77;;;0.70;;
11539;SDS011;5826;54.756;9.192;2022-09-20T15:13:29;1.15;;;0.75;;
11539;SDS011;5826;54.756;9.192;2022-09-20T15:15:55;0.70;;;0.52;;
11539;SDS011;5826;54.756;9.192;2022-09-20T15:18:21;2.17;;;1.23;;
11539;SDS011;5826;54.756;9.192;2022-09-20T15:20:50;2.47;;;1.83;;
11539;SDS011;5826;54.756;9.192;2022-09-20T15:23:16;4.97;;;3.55;;
11539;SDS011;5826;54.756;9.192;2022-09-20T15:25:41;4.47;;;3.10;;
11539;SDS011;5826;54.756;9.192;2022-09-20T15:28:14;3.25;;;2.30;;
11539;SDS011;5826;54.756;9.192;2022-09-20T15:30:41;2.08;;;1.42;;
11539;SDS011;5826;54.756;9.192;2022-09-20T15:33:17;1.45;;;1.20;;
11539;SDS011;5826;54.756;9.192;2022-09-20T15:35:44;1.70;;;1.08;;
11539;SDS011;5826;54.756;9.192;2022-09-20T15:38:10;1.08;;;0.80;;
11539;SDS011;5826;54.756;9.192;2022-09-20T15:40:46;1.17;;;0.82;;
11539;SDS011;5826;54.756;9.192;2022-09-20T15:43:13;1.95;;;0.73;;
11539;SDS011;5826;54.756;9.192;2022-09-20T15:45:51;1.67;;;0.70;;
11539;SDS011;5826;54.756;9.192;2022-09-20T15:48:19;1.08;;;0.70;;
11539;SDS011;5826;54.756;9.192;2022-09-20T15:51:01;0.77;;;0.63;;
11539;SDS011;5826;54.756;9.192;2022-09-20T15:53:39;1.02;;;0.55;;
11539;SDS011;5826;54.756;9.192;2022-09-20T15:56:15;0.98;;;0.70;;
11539;SDS011;5826;54.756;9.192;2022-09-20T15:58:47;0.82;;;0.50;;
11539;SDS011;5826;54.756;9.192;2022-09-20T16:01:14;1.05;;;0.75;;
11539;SDS011;5826;54.756;9.192;2022-09-20T16:03:41;0.98;;;0.60;;
11539;SDS011;5826;54.756;9.192;2022-09-20T16:06:08;0.45;;;0.45;;
11539;SDS011;5826;54.756;9.192;2022-09-20T16:08:34;0.50;;;0.50;;
11539;SDS011;5826;54.756;9.192;2022-09-20T16:11:02;0.80;;;0.50;;
11539;SDS011;5826;54.756;9.192;2022-09-20T16:13:28;1.20;;;0.68;;
11539;SDS011;5826;54.756;9.192;2022-09-20T16:15:55;1.13;;;0.50;;
11539;SDS011;5826;54.756;9.192;2022-09-20T16:18:21;0.93;;;0.60;;
11539;SDS011;5826;54.756;9.192;2022-09-20T16:21:09;0.93;;;0.60;;
11539;SDS011;5826;54.756;9.192;2022-09-20T16:23:36;0.93;;;0.60;;
11539;SDS011;5826;54.756;9.192;2022-09-20T16:26:02;1.10;;;0.60;;
11539;SDS011;5826;54.756;9.192;2022-09-20T16:28:29;0.75;;;0.60;;
11539;SDS011;5826;54.756;9.192;2022-09-20T16:30:58;0.95;;;0.60;;
11539;SDS011;5826;54.756;9.192;2022-09-20T16:33:24;1.05;;;0.70;;
11539;SDS011;5826;54.756;9.192;2022-09-20T16:35:49;1.23;;;0.70;;
11539;SDS011;5826;54.756;9.192;2022-09-20T16:38:15;1.27;;;0.70;;
11539;SDS011;5826;54.756;9.192;2022-09-20T16:40:42;1.05;;;0.70;;
11539;SDS011;5826;54.756;9.192;2022-09-20T16:43:07;1.33;;;0.73;;
11539;SDS011;5826;54.756;9.192;2022-09-20T16:45:33;1.67;;;0.73;;
11539;SDS011;5826;54.756;9.192;2022-09-20T16:48:00;2.05;;;0.82;;
11539;SDS011;5826;54.756;9.192;2022-09-20T16:50:28;1.45;;;0.90;;
11539;SDS011;5826;54.756;9.192;2022-09-20T16:52:54;1.67;;;1.13;;
11539;SDS011;5826;54.756;9.192;2022-09-20T16:55:19;1.65;;;1.30;;
11539;SDS011;5826;54.756;9.192;2022-09-20T16:57:48;1.60;;;1.10;;
11539;SDS011;5826;54.756;9.192;2022-09-20T17:00:14;1.17;;;1.05;;
11539;SDS011;5826;54.756;9.192;2022-09-20T17:02:44;1.98;;;1.20;;
11539;SDS011;5826;54.756;9.192;2022-09-20T17:05:12;2.25;;;1.40;;
11539;SDS011;5826;54.756;9.192;2022-09-20T17:07:38;1.27;;;1.10;;
11539;SDS011;5826;54.756;9.192;2022-09-20T17:10:06;1.33;;;1.23;;
11539;SDS011;5826;54.756;9.192;2022-09-20T17:12:33;2.38;;;1.52;;
11539;SDS011;5826;54.756;9.192;2022-09-20T17:15:05;1.77;;;1.45;;
11539;SDS011;5826;54.756;9.192;2022-09-20T17:17:37;2.03;;;1.48;;
11539;SDS011;5826;54.756;9.192;2022-09-20T17:20:03;1.75;;;1.40;;
11539;SDS011;5826;54.756;9.192;2022-09-20T17:22:30;1.92;;;1.50;;
11539;SDS011;5826;54.756;9.192;2022-09-20T17:24:55;2.08;;;1.60;;
11539;SDS011;5826;54.756;9.192;2022-09-20T17:27:21;2.00;;;1.50;;
11539;SDS011;5826;54.756;9.192;2022-09-20T17:29:48;1.60;;;1.30;;
11539;SDS011;5826;54.756;9.192;2022-09-20T17:32:13;2.92;;;1.50;;
11539;SDS011;5826;54.756;9.192;2022-09-20T17:34:39;1.83;;;1.40;;
11539;SDS011;5826;54.756;9.192;2022-09-20T17:37:04;3.28;;;1.40;;
11539;SDS011;5826;54.756;9.192;2022-09-20T17:39:30;1.67;;;1.35;;
11539;SDS011;5826;54.756;9.192;2022-09-20T17:41:56;1.27;;;1.05;;
11539;SDS011;5826;54.756;9.192;2022-09-20T17:44:21;2.55;;;1.35;;
11539;SDS011;5826;54.756;9.192;2022-09-20T17:46:48;2.13;;;1.10;;
11539;SDS011;5826;54.756;9.192;2022-09-20T17:49:19;2.05;;;1.15;;
11539;SDS011;5826;54.756;9.192;2022-09-20T17:51:47;1.00;;;0.90;;
11539;SDS011;5826;54.756;9.192;2022-09-20T17:54:14;2.22;;;1.23;;
11539;SDS011;5826;54.756;9.192;2022-09-20T17:56:47;2.03;;;1.20;;
11539;SDS011;5826;54.756;9.192;2022-09-20T17:59:14;1.55;;;1.10;;
11539;SDS011;5826;54.756;9.192;2022-09-20T18:01:41;1.77;;;1.10;;
11539;SDS011;5826;54.756;9.192;2022-09-20T18:04:08;2.67;;;1.38;;
11539;SDS011;5826;54.756;9.192;2022-09-20T18:06:38;3.38;;;1.15;;
11539;SDS011;5826;54.756;9.192;2022-09-20T18:09:14;2.08;;;1.08;;
11539;SDS011;5826;54.756;9.192;2022-09-20T18:11:42;1.65;;;1.02;;
11539;SDS011;5826;54.756;9.192;2022-09-20T18:14:10;1.98;;;0.90;;
11539;SDS011;5826;54.756;9.192;2022-09-20T18:16:36;1.77;;;1.13;;
11539;SDS011;5826;54.756;9.192;2022-09-20T18:19:03;2.25;;;1.05;;
11539;SDS011;5826;54.756;9.192;2022-09-20T18:21:30;1.85;;;1.00;;
11539;SDS011;5826;54.756;9.192;2022-09-20T18:23:57;1.90;;;1.02;;
11539;SDS011;5826;54.756;9.192;2022-09-20T18:26:24;3.00;;;1.00;;
11539;SDS011;5826;54.756;9.192;2022-09-20T18:28:52;2.80;;;1.13;;
11539;SDS011;5826;54.756;9.192;2022-09-20T18:31:34;1.55;;;1.00;;
11539;SDS011;5826;54.756;9.192;2022-09-20T18:34:00;2.95;;;1.42;;
11539;SDS011;5826;54.756;9.192;2022-09-20T18:36:28;3.22;;;1.52;;
11539;SDS011;5826;54.756;9.192;2022-09-20T18:38:55;2.70;;;1.50;;
11539;SDS011;5826;54.756;9.192;2022-09-20T18:41:28;1.30;;;1.20;;
11539;SDS011;5826;54.756;9.192;2022-09-20T18:43:59;2.20;;;1.30;;
11539;SDS011;5826;54.756;9.192;2022-09-20T18:46:28;2.15;;;1.45;;
11539;SDS011;5826;54.756;9.192;2022-09-20T18:48:55;1.83;;;1.10;;
11539;SDS011;5826;54.756;9.192;2022-09-20T18:51:23;2.10;;;1.05;;
11539;SDS011;5826;54.756;9.192;2022-09-20T18:53:50;1.25;;;0.90;;
11539;SDS011;5826;54.756;9.192;2022-09-20T18:56:20;1.52;;;0.88;;
11539;SDS011;5826;54.756;9.192;2022-09-20T18:58:47;2.13;;;0.82;;
11539;SDS011;5826;54.756;9.192;2022-09-20T19:12:30;1.60;;;1.15;;
11539;SDS011;5826;54.756;9.192;2022-09-20T19:18:03;1.70;;;0.98;;
11539;SDS011;5826;54.756;9.192;2022-09-20T19:26:54;2.08;;;0.93;;
11539;SDS011;5826;54.756;9.192;2022-09-20T19:29:20;1.35;;;1.02;;
11539;SDS011;5826;54.756;9.192;2022-09-20T19:31:49;1.40;;;0.80;;
11539;SDS011;5826;54.756;9.192;2022-09-20T19:34:19;1.30;;;0.90;;
11539;SDS011;5826;54.756;9.192;2022-09-20T19:42:11;1.50;;;1.00;;
11539;SDS011;5826;54.756;9.192;2022-09-20T19:44:58;1.55;;;0.90;;
11539;SDS011;5826;54.756;9.192;2022-09-20T19:47:48;1.55;;;1.00;;
11539;SDS011;5826;54.756;9.192;2022-09-20T19:50:44;1.60;;;1.25;;
11539;SDS011;5826;54.756;9.192;2022-09-20T19:53:13;1.50;;;1.10;;
11539;SDS011;5826;54.756;9.192;2022-09-20T19:55:43;1.77;;;1.25;;
11539;SDS011;5826;54.756;9.192;2022-09-20T19:58:11;2.28;;;1.73;;
11539;SDS011;5826;54.756;9.192;2022-09-20T20:00:38;2.17;;;1.70;;
11539;SDS011;5826;54.756;9.192;2022-09-20T20:03:04;1.98;;;1.70;;
11539;SDS011;5826;54.756;9.192;2022-09-20T20:05:30;2.20;;;1.70;;
11539;SDS011;5826;54.756;9.192;2022-09-20T20:10:56;2.40;;;1.50;;
11539;SDS011;5826;54.756;9.192;2022-09-20T20:16:26;1.42;;;1.20;;
11539;SDS011;5826;54.756;9.192;2022-09-20T20:21:37;1.52;;;1.30;;
11539;SDS011;5826;54.756;9.192;2022-09-20T20:24:20;2.53;;;1.10;;
11539;SDS011;5826;54.756;9.192;2022-09-20T20:27:01;2.17;;;1.30;;
11539;SDS011;5826;54.756;9.192;2022-09-20T20:29:26;1.42;;;1.27;;
11539;SDS011;5826;54.756;9.192;2022-09-20T20:31:52;2.10;;;1.50;;
11539;SDS011;5826;54.756;9.192;2022-09-20T20:34:17;2.15;;;1.25;;
11539;SDS011;5826;54.756;9.192;2022-09-20T20:36:44;1.40;;;1.25;;
11539;SDS011;5826;54.756;9.192;2022-09-20T20:39:10;1.63;;;1.10;;
11539;SDS011;5826;54.756;9.192;2022-09-20T20:41:36;1.52;;;1.13;;
11539;SDS011;5826;54.756;9.192;2022-09-20T20:44:03;2.42;;;1.20;;
11539;SDS011;5826;54.756;9.192;2022-09-20T20:46:30;1.52;;;1.38;;
11539;SDS011;5826;54.756;9.192;2022-09-20T20:48:59;2.65;;;1.50;;
11539;SDS011;5826;54.756;9.192;2022-09-20T20:51:27;1.55;;;1.20;;
11539;SDS011;5826;54.756;9.192;2022-09-20T20:53:56;2.80;;;1.60;;
11539;SDS011;5826;54.756;9.192;2022-09-20T20:56:23;2.20;;;1.80;;
11539;SDS011;5826;54.756;9.192;2022-09-20T20:58:50;2.58;;;1.65;;